createdAt,value
2022-09-18T00:01:20.163Z,7.37
2022-09-18T00:03:47.832Z,7.35
2022-09-18T00:06:23.322Z,7.33
2022-09-18T00:08:52.449Z,7.33
2022-09-18T00:11:21.244Z,7.31
2022-09-18T00:13:49.123Z,7.29
2022-09-18T00:16:17.569Z,7.33
2022-09-18T00:18:44.956Z,7.35
2022-09-18T00:21:18.688Z,7.37
2022-09-18T00:23:46.207Z,7.37
2022-09-18T00:26:14.768Z,7.37
2022-09-18T00:28:41.758Z,7.40
2022-09-18T00:31:11.994Z,7.40
2022-09-18T00:33:40.101Z,7.44
2022-09-18T00:36:09.635Z,7.43
2022-09-18T00:38:36.680Z,7.39
2022-09-18T00:41:09.271Z,7.35
2022-09-18T00:43:37.748Z,7.32
2022-09-18T00:46:27.782Z,7.31
2022-09-18T00:49:08.073Z,7.25
2022-09-18T00:51:35.759Z,7.18
2022-09-18T00:54:13.671Z,7.16
2022-09-18T00:56:41.272Z,7.11
2022-09-18T00:59:11.031Z,7.09
2022-09-18T01:01:38.122Z,7.06
2022-09-18T01:04:09.528Z,7.07
2022-09-18T01:07:10.604Z,7.08
2022-09-18T01:09:49.875Z,7.05
2022-09-18T01:12:33.968Z,7.00
2022-09-18T01:15:10.597Z,6.96
2022-09-18T01:17:56.238Z,6.96
2022-09-18T01:20:26.390Z,6.92
2022-09-18T01:23:02.468Z,6.91
2022-09-18T01:25:51.146Z,6.93
2022-09-18T01:28:26.452Z,6.89
2022-09-18T01:30:56.912Z,6.87
2022-09-18T01:33:26.144Z,6.85
2022-09-18T01:35:55.677Z,6.82
2022-09-18T01:38:45.447Z,6.83
2022-09-18T01:41:25.043Z,6.78
2022-09-18T01:43:56.285Z,6.77
2022-09-18T01:46:25.575Z,6.78
2022-09-18T01:49:03.179Z,6.83
2022-09-18T01:51:42.111Z,6.80
2022-09-18T01:54:15.734Z,6.77
2022-09-18T01:56:54.160Z,6.76
2022-09-18T01:59:58.656Z,6.77
2022-09-18T02:02:33.433Z,6.74
2022-09-18T02:05:03.636Z,6.70
2022-09-18T02:07:42.113Z,6.70
2022-09-18T02:10:10.461Z,6.68
2022-09-18T02:12:40.188Z,6.68
2022-09-18T02:15:13.513Z,6.70
2022-09-18T02:17:58.680Z,6.68
2022-09-18T02:20:42.917Z,6.67
2022-09-18T02:23:11.249Z,6.69
2022-09-18T02:26:04.547Z,6.68
2022-09-18T02:28:33.683Z,6.64
2022-09-18T02:31:01.295Z,6.59
2022-09-18T02:33:33.473Z,6.54
2022-09-18T02:36:17.984Z,6.51
2022-09-18T02:38:57.110Z,6.48
2022-09-18T02:41:36.623Z,6.49
2022-09-18T02:44:10.411Z,6.53
2022-09-18T02:47:08.760Z,6.53
2022-09-18T02:49:58.328Z,6.49
2022-09-18T02:52:37.354Z,6.51
2022-09-18T02:55:13.069Z,6.49
2022-09-18T02:57:47.267Z,6.44
2022-09-18T03:00:18.738Z,6.44
2022-09-18T03:02:50.351Z,6.42
2022-09-18T03:05:29.114Z,6.40
2022-09-18T03:07:59.192Z,6.35
2022-09-18T03:10:27.801Z,6.37
2022-09-18T03:12:54.875Z,6.39
2022-09-18T03:15:22.436Z,6.36
2022-09-18T03:17:51.072Z,6.36
2022-09-18T03:20:18.187Z,6.33
2022-09-18T03:22:45.184Z,6.33
2022-09-18T03:25:14.547Z,6.37
2022-09-18T03:27:43.285Z,6.41
2022-09-18T03:30:14.835Z,6.44
2022-09-18T03:32:44.072Z,6.45
2022-09-18T03:35:13.823Z,6.48
2022-09-18T03:37:41.810Z,6.53
2022-09-18T03:40:11.095Z,6.62
2022-09-18T03:42:39.365Z,6.65
2022-09-18T03:45:09.149Z,6.72
2022-09-18T03:47:36.796Z,6.77
2022-09-18T03:50:06.814Z,6.83
2022-09-18T03:52:35.448Z,6.89
2022-09-18T03:55:11.813Z,6.92
2022-09-18T03:58:10.723Z,6.93
2022-09-18T04:01:00.729Z,6.87
2022-09-18T04:03:37.706Z,6.85
2022-09-18T04:06:25.940Z,6.84
2022-09-18T04:09:13.132Z,6.84
2022-09-18T04:11:47.200Z,6.86
2022-09-18T04:14:14.900Z,6.94
2022-09-18T04:16:41.848Z,7.04
2022-09-18T04:19:09.444Z,7.09
2022-09-18T04:21:38.860Z,7.15
2022-09-18T04:24:06.788Z,7.20
2022-09-18T04:26:35.196Z,7.27
2022-09-18T04:29:05.360Z,7.38
2022-09-18T04:31:37.795Z,7.53
2022-09-18T04:34:09.735Z,7.60
2022-09-18T04:36:39.164Z,7.74
2022-09-18T04:39:07.863Z,7.91
2022-09-18T04:41:36.987Z,8.07
2022-09-18T04:44:07.510Z,8.18
2022-09-18T04:46:40.071Z,8.32
2022-09-18T04:49:07.066Z,8.43
2022-09-18T04:51:34.119Z,8.51
2022-09-18T04:54:01.919Z,8.54
2022-09-18T04:56:28.843Z,8.58
2022-09-18T04:58:57.430Z,8.52
2022-09-18T05:01:24.568Z,8.47
2022-09-18T05:03:51.667Z,8.52
2022-09-18T05:06:27.260Z,8.58
2022-09-18T05:08:54.249Z,8.72
2022-09-18T05:11:24.647Z,8.79
2022-09-18T05:13:56.932Z,8.78
2022-09-18T05:16:26.847Z,8.81
2022-09-18T05:19:25.052Z,8.95
2022-09-18T05:21:59.265Z,8.85
2022-09-18T05:24:26.413Z,8.84
2022-09-18T05:26:53.343Z,8.98
2022-09-18T05:29:21.967Z,8.99
2022-09-18T05:31:51.271Z,8.92
2022-09-18T05:34:18.460Z,8.84
2022-09-18T05:36:46.497Z,8.67
2022-09-18T05:39:17.588Z,8.60
2022-09-18T05:41:49.846Z,8.70
2022-09-18T05:44:18.123Z,8.67
2022-09-18T05:46:49.796Z,8.76
2022-09-18T05:49:17.365Z,8.77
2022-09-18T05:51:46.342Z,8.79
2022-09-18T05:54:16.934Z,8.92
2022-09-18T05:56:47.898Z,9.01
2022-09-18T05:59:17.669Z,9.17
2022-09-18T06:01:49.006Z,9.51
2022-09-18T06:04:21.699Z,9.89
2022-09-18T06:06:57.001Z,10.01
2022-09-18T06:09:26.113Z,10.10
2022-09-18T06:11:55.089Z,10.21
2022-09-18T06:14:23.128Z,10.09
2022-09-18T06:16:50.655Z,10.17
2022-09-18T06:19:17.690Z,10.14
2022-09-18T06:21:57.120Z,10.14
2022-09-18T06:24:24.560Z,10.22
2022-09-18T06:27:02.163Z,10.12
2022-09-18T06:29:29.059Z,10.04
2022-09-18T06:32:03.115Z,10.20
2022-09-18T06:34:34.450Z,10.69
2022-09-18T06:37:06.639Z,10.88
2022-09-18T06:39:42.863Z,10.88
2022-09-18T06:42:16.821Z,10.88
2022-09-18T06:45:02.336Z,10.98
2022-09-18T06:47:31.465Z,11.30
2022-09-18T06:49:58.548Z,11.59
2022-09-18T06:52:30.065Z,11.80
2022-09-18T06:55:00.204Z,12.09
2022-09-18T06:57:31.652Z,12.34
2022-09-18T06:59:59.511Z,12.51
2022-09-18T07:02:31.450Z,12.63
2022-09-18T07:05:07.873Z,12.91
2022-09-18T07:07:38.882Z,13.24
2022-09-18T07:10:09.152Z,13.17
2022-09-18T07:12:49.001Z,13.22
2022-09-18T07:15:20.219Z,13.57
2022-09-18T07:17:47.400Z,13.83
2022-09-18T07:20:17.028Z,14.01
2022-09-18T07:22:52.644Z,13.94
2022-09-18T07:25:20.638Z,13.81
2022-09-18T07:27:48.966Z,13.87
2022-09-18T07:30:18.497Z,14.20
2022-09-18T07:32:46.926Z,14.62
2022-09-18T07:35:17.700Z,15.08
2022-09-18T07:37:44.702Z,15.14
2022-09-18T07:40:21.168Z,15.34
2022-09-18T07:43:01.572Z,15.56
2022-09-18T07:45:29.359Z,15.81
2022-09-18T07:47:56.815Z,16.16
2022-09-18T07:50:24.106Z,16.00
2022-09-18T07:52:54.471Z,15.95
2022-09-18T07:55:31.812Z,16.14
2022-09-18T07:58:01.710Z,16.33
2022-09-18T08:00:52.080Z,16.52
2022-09-18T08:03:21.244Z,17.04
2022-09-18T08:05:56.915Z,17.18
2022-09-18T08:08:24.777Z,17.37
2022-09-18T08:10:55.823Z,17.24
2022-09-18T08:13:43.000Z,17.32
2022-09-18T08:16:36.421Z,16.86
2022-09-18T08:19:24.435Z,16.51
2022-09-18T08:21:56.058Z,16.43
2022-09-18T08:24:23.257Z,16.45
2022-09-18T08:26:50.421Z,16.41
2022-09-18T08:29:23.691Z,16.25
2022-09-18T08:32:03.552Z,16.12
2022-09-18T08:34:34.597Z,15.86
2022-09-18T08:37:06.388Z,15.79
2022-09-18T08:40:02.188Z,15.75
2022-09-18T08:42:37.849Z,15.77
2022-09-18T08:45:20.100Z,15.79
2022-09-18T08:47:56.654Z,15.73
2022-09-18T08:50:38.722Z,15.74
2022-09-18T08:53:19.169Z,15.88
2022-09-18T08:56:25.749Z,15.99
2022-09-18T08:59:34.826Z,16.01
2022-09-18T09:02:24.237Z,15.78
2022-09-18T09:04:58.324Z,15.68
2022-09-18T09:07:53.219Z,15.57
2022-09-18T09:10:28.685Z,15.55
2022-09-18T09:13:20.166Z,15.66
2022-09-18T09:15:54.941Z,15.52
2022-09-18T09:18:22.535Z,15.31
2022-09-18T09:20:58.792Z,15.21
2022-09-18T09:23:38.824Z,15.24
2022-09-18T09:26:21.925Z,15.20
2022-09-18T09:29:14.758Z,15.07
2022-09-18T09:31:58.691Z,15.00
2022-09-18T09:34:53.254Z,14.96
2022-09-18T09:37:43.818Z,14.97
2022-09-18T09:40:43.573Z,14.96
2022-09-18T09:43:13.678Z,14.72
2022-09-18T09:45:49.991Z,14.59
2022-09-18T09:48:45.590Z,14.63
2022-09-18T09:51:36.820Z,14.66
2022-09-18T09:54:09.859Z,14.73
2022-09-18T09:57:17.825Z,14.70
2022-09-18T10:00:14.052Z,14.65
2022-09-18T10:03:15.081Z,14.54
2022-09-18T10:05:53.496Z,14.41
2022-09-18T10:08:42.241Z,14.29
2022-09-18T10:11:12.438Z,14.27
2022-09-18T10:13:51.444Z,14.17
2022-09-18T10:16:28.598Z,14.15
2022-09-18T10:18:57.891Z,14.00
2022-09-18T10:21:27.605Z,14.00
2022-09-18T10:23:59.175Z,14.03
2022-09-18T10:26:31.781Z,14.03
2022-09-18T10:29:00.592Z,14.01
2022-09-18T10:31:48.848Z,13.92
2022-09-18T10:34:46.028Z,13.90
2022-09-18T10:37:30.108Z,13.88
2022-09-18T10:40:11.051Z,13.87
2022-09-18T10:42:39.320Z,13.81
2022-09-18T10:45:27.005Z,13.71
2022-09-18T10:48:23.540Z,13.64
2022-09-18T10:51:02.586Z,13.63
2022-09-18T10:53:42.762Z,13.57
2022-09-18T10:56:23.166Z,13.58
2022-09-18T10:58:54.592Z,13.57
2022-09-18T11:01:24.582Z,13.57
2022-09-18T11:04:02.529Z,13.44
2022-09-18T11:06:35.604Z,13.35
2022-09-18T11:09:31.334Z,13.36
2022-09-18T11:11:59.037Z,13.32
2022-09-18T11:14:33.302Z,13.25
2022-09-18T11:17:04.616Z,13.07
2022-09-18T11:19:39.453Z,12.83
2022-09-18T11:22:53.694Z,12.66
2022-09-18T11:25:31.251Z,12.58
2022-09-18T11:28:30.800Z,12.57
2022-09-18T11:31:03.282Z,12.54
2022-09-18T11:33:37.958Z,12.62
2022-09-18T11:36:10.858Z,12.62
2022-09-18T11:38:43.311Z,12.60
2022-09-18T11:41:13.733Z,12.56
2022-09-18T11:44:06.156Z,12.60
2022-09-18T11:47:12.710Z,12.74
2022-09-18T11:49:46.023Z,12.83
2022-09-18T11:52:19.220Z,12.91
2022-09-18T11:55:08.993Z,13.11
2022-09-18T11:57:40.567Z,13.20
2022-09-18T12:00:24.704Z,13.16
2022-09-18T12:03:29.439Z,13.04
2022-09-18T12:06:01.707Z,12.99
2022-09-18T12:08:48.397Z,12.99
2022-09-18T12:11:18.419Z,12.82
2022-09-18T12:14:00.186Z,12.71
2022-09-18T12:17:08.393Z,12.61
2022-09-18T12:19:42.832Z,12.44
2022-09-18T12:22:18.050Z,12.38
2022-09-18T12:24:46.049Z,12.24
2022-09-18T12:27:48.552Z,12.17
2022-09-18T12:30:16.985Z,12.06
2022-09-18T12:32:49.241Z,12.00
2022-09-18T12:35:16.104Z,11.94
2022-09-18T12:37:42.963Z,11.91
2022-09-18T12:40:48.113Z,11.87
2022-09-18T12:43:14.959Z,11.75
2022-09-18T12:46:05.784Z,11.76
2022-09-18T12:48:55.913Z,11.75
2022-09-18T12:51:38.859Z,11.68
2022-09-18T12:54:16.582Z,11.64
2022-09-18T12:57:02.304Z,11.59
2022-09-18T12:59:52.506Z,11.49
2022-09-18T13:02:43.170Z,11.47
2022-09-18T13:05:36.599Z,11.47
2022-09-18T13:08:28.414Z,11.53
2022-09-18T13:11:34.538Z,11.55
2022-09-18T13:14:15.925Z,11.53
2022-09-18T13:16:50.450Z,11.51
2022-09-18T13:19:35.826Z,11.48
2022-09-18T13:22:07.446Z,11.47
2022-09-18T13:24:36.001Z,11.49
2022-09-18T13:27:04.956Z,11.51
2022-09-18T13:29:52.995Z,11.51
2022-09-18T13:32:23.067Z,11.48
2022-09-18T13:34:55.856Z,11.48
2022-09-18T13:37:29.394Z,11.52
2022-09-18T13:40:10.104Z,11.53
2022-09-18T13:42:40.938Z,11.53
2022-09-18T13:45:18.174Z,11.55
2022-09-18T13:48:23.025Z,11.59
2022-09-18T13:50:59.750Z,11.59
2022-09-18T13:53:32.324Z,11.58
2022-09-18T13:56:00.070Z,11.58
2022-09-18T13:58:54.623Z,11.59
2022-09-18T14:01:40.121Z,11.57
2022-09-18T14:04:40.907Z,11.58
2022-09-18T14:07:17.163Z,11.51
2022-09-18T14:10:03.829Z,11.46
2022-09-18T14:12:35.345Z,11.43
2022-09-18T14:15:17.111Z,11.42
2022-09-18T14:18:07.993Z,11.41
2022-09-18T14:20:35.370Z,11.37
2022-09-18T14:23:36.126Z,11.33
2022-09-18T14:26:08.646Z,11.25
2022-09-18T14:28:38.095Z,11.21
2022-09-18T14:31:33.081Z,11.21
2022-09-18T14:34:02.684Z,11.19
2022-09-18T14:36:47.023Z,11.19
2022-09-18T14:39:27.357Z,11.23
2022-09-18T14:42:09.012Z,11.22
2022-09-18T14:44:37.085Z,11.21
2022-09-18T14:47:09.173Z,11.23
2022-09-18T14:49:43.713Z,11.27
2022-09-18T14:52:22.710Z,11.29
2022-09-18T14:54:52.069Z,11.30
2022-09-18T14:57:36.509Z,11.28
2022-09-18T15:00:08.151Z,11.27
2022-09-18T15:02:36.664Z,11.27
2022-09-18T15:05:19.429Z,11.29
2022-09-18T15:07:53.409Z,11.29
2022-09-18T15:10:20.870Z,11.28
2022-09-18T15:12:47.955Z,11.23
2022-09-18T15:15:26.531Z,11.25
2022-09-18T15:18:00.168Z,11.21
2022-09-18T15:20:28.902Z,11.21
2022-09-18T15:22:56.908Z,11.21
2022-09-18T15:25:28.191Z,11.20
2022-09-18T15:27:56.457Z,11.21
2022-09-18T15:30:27.982Z,11.22
2022-09-18T15:33:05.381Z,11.22
2022-09-18T15:35:35.503Z,11.19
2022-09-18T15:38:06.019Z,11.19
2022-09-18T15:40:38.475Z,11.23
2022-09-18T15:43:14.672Z,11.24
2022-09-18T15:46:03.259Z,11.26
2022-09-18T15:48:37.803Z,11.27
2022-09-18T15:51:17.066Z,11.28
2022-09-18T15:54:04.740Z,11.31
2022-09-18T15:56:34.354Z,11.31
2022-09-18T15:59:04.364Z,11.29
2022-09-18T16:01:41.072Z,11.26
2022-09-18T16:04:18.050Z,11.28
2022-09-18T16:07:01.575Z,11.32
2022-09-18T16:09:43.299Z,11.32
2022-09-18T16:12:30.186Z,11.34
2022-09-18T16:15:02.759Z,11.34
2022-09-18T16:17:33.766Z,11.35
2022-09-18T16:20:37.388Z,11.38
2022-09-18T16:23:10.798Z,11.36
2022-09-18T16:25:41.533Z,11.36
2022-09-18T16:28:25.012Z,11.38
2022-09-18T16:30:52.464Z,11.37
2022-09-18T16:33:25.102Z,11.38
2022-09-18T16:36:03.031Z,11.40
2022-09-18T16:38:32.633Z,11.39
2022-09-18T16:40:59.628Z,11.39
2022-09-18T16:43:26.826Z,11.39
2022-09-18T16:45:55.120Z,11.37
2022-09-18T16:48:26.986Z,11.38
2022-09-18T16:50:54.123Z,11.37
2022-09-18T16:53:23.697Z,11.38
2022-09-18T16:55:55.430Z,11.38
2022-09-18T16:58:23.479Z,11.39
2022-09-18T17:00:50.930Z,11.40
2022-09-18T17:03:18.246Z,11.42
2022-09-18T17:05:48.880Z,11.45
2022-09-18T17:08:20.952Z,11.44
2022-09-18T17:10:48.377Z,11.41
2022-09-18T17:13:18.152Z,11.38
2022-09-18T17:15:45.255Z,11.39
2022-09-18T17:18:12.371Z,11.40
2022-09-18T17:20:39.620Z,11.40
2022-09-18T17:23:07.246Z,11.43
2022-09-18T17:25:34.340Z,11.40
2022-09-18T17:28:01.705Z,11.44
2022-09-18T17:30:28.840Z,11.45
2022-09-18T17:32:55.910Z,11.47
2022-09-18T17:35:22.859Z,11.46
2022-09-18T17:37:51.851Z,11.46
2022-09-18T17:40:23.185Z,11.48
2022-09-18T17:42:50.593Z,11.48
2022-09-18T17:45:17.892Z,11.48
2022-09-18T17:47:44.944Z,11.52
2022-09-18T17:50:13.518Z,11.54
2022-09-18T17:52:40.744Z,11.52
2022-09-18T17:55:08.976Z,11.54
2022-09-18T17:57:39.593Z,11.55
2022-09-18T18:00:07.352Z,11.55
2022-09-18T18:02:45.548Z,11.56
2022-09-18T18:05:17.985Z,11.56
2022-09-18T18:07:45.115Z,11.57
2022-09-18T18:10:14.396Z,11.55
2022-09-18T18:12:41.409Z,11.55
2022-09-18T18:15:09.151Z,11.54
2022-09-18T18:17:44.223Z,11.57
2022-09-18T18:20:14.829Z,11.57
2022-09-18T18:22:42.222Z,11.56
2022-09-18T18:25:12.678Z,11.55
2022-09-18T18:27:39.927Z,11.55
2022-09-18T18:30:08.964Z,11.52
2022-09-18T18:32:36.941Z,11.55
2022-09-18T18:35:10.599Z,11.58
2022-09-18T18:37:37.849Z,11.61
2022-09-18T18:40:05.338Z,11.60
2022-09-18T18:42:35.073Z,11.59
2022-09-18T18:45:02.729Z,11.59
2022-09-18T18:47:30.988Z,11.60
2022-09-18T18:49:58.129Z,11.60
2022-09-18T18:52:26.464Z,11.61
2022-09-18T18:54:53.598Z,11.61
2022-09-18T18:57:21.688Z,11.55
2022-09-18T18:59:48.633Z,11.56
2022-09-18T19:02:17.912Z,11.55
2022-09-18T19:04:45.683Z,11.55
2022-09-18T19:07:19.031Z,11.54
2022-09-18T19:09:46.020Z,11.50
2022-09-18T19:12:17.535Z,11.52
2022-09-18T19:14:44.620Z,11.51
2022-09-18T19:17:11.572Z,11.54
2022-09-18T19:19:39.321Z,11.55
2022-09-18T19:22:08.648Z,11.54
2022-09-18T19:24:36.080Z,11.48
2022-09-18T19:27:05.966Z,11.53
2022-09-18T19:29:33.335Z,11.50
2022-09-18T19:32:00.791Z,11.49
2022-09-18T19:34:27.928Z,11.48
2022-09-18T19:37:20.163Z,11.52
2022-09-18T19:39:50.411Z,11.44
2022-09-18T19:42:17.622Z,11.52
2022-09-18T19:44:52.573Z,11.49
2022-09-18T19:50:32.436Z,11.46
2022-09-18T19:53:03.547Z,11.51
2022-09-18T19:55:30.698Z,11.47
2022-09-18T19:57:59.468Z,11.52
2022-09-18T20:00:26.691Z,11.52
2022-09-18T20:02:57.940Z,11.55
2022-09-18T20:05:26.211Z,11.53
2022-09-18T20:07:53.663Z,11.53
2022-09-18T20:10:20.756Z,11.53
2022-09-18T20:12:47.826Z,11.52
2022-09-18T20:15:14.914Z,11.52
2022-09-18T20:17:41.994Z,11.51
2022-09-18T20:20:16.139Z,11.52
2022-09-18T20:22:43.846Z,11.52
2022-09-18T20:25:10.965Z,11.54
2022-09-18T20:27:40.081Z,11.55
2022-09-18T20:30:09.203Z,11.54
2022-09-18T20:32:36.442Z,11.56
2022-09-18T20:35:03.520Z,11.57
2022-09-18T20:37:32.911Z,11.55
2022-09-18T20:40:03.212Z,11.59
2022-09-18T20:42:32.578Z,11.59
2022-09-18T20:45:02.541Z,11.60
2022-09-18T20:47:34.968Z,11.63
2022-09-18T20:50:11.769Z,11.66
2022-09-18T20:52:43.143Z,11.64
2022-09-18T20:55:15.615Z,11.64
2022-09-18T20:57:46.591Z,11.62
2022-09-18T21:00:16.368Z,11.64
2022-09-18T21:02:44.278Z,11.64
2022-09-18T21:05:14.762Z,11.65
2022-09-18T21:07:45.781Z,11.69
2022-09-18T21:10:16.282Z,11.68
2022-09-18T21:12:43.398Z,11.71
2022-09-18T21:15:14.582Z,11.73
2022-09-18T21:17:46.250Z,11.72
2022-09-18T21:20:15.116Z,11.75
2022-09-18T21:23:09.593Z,11.78
2022-09-18T21:25:36.815Z,11.82
2022-09-18T21:28:06.104Z,11.89
2022-09-18T21:30:33.077Z,11.92
2022-09-18T21:33:00.322Z,11.97
2022-09-18T21:35:27.500Z,12.04
2022-09-18T21:37:55.455Z,12.06
2022-09-18T21:40:22.559Z,12.09
2022-09-18T21:42:49.610Z,12.10
2022-09-18T21:45:20.743Z,12.14
2022-09-18T21:47:49.886Z,12.14
2022-09-18T21:50:16.927Z,12.15
2022-09-18T21:52:46.834Z,12.17
2022-09-18T21:55:13.792Z,12.21
2022-09-18T21:57:40.883Z,12.22
2022-09-18T22:00:09.551Z,12.26
2022-09-18T22:02:41.157Z,12.27
2022-09-18T22:05:11.787Z,12.30
2022-09-18T22:07:38.955Z,12.31
2022-09-18T22:10:06.816Z,12.31
2022-09-18T22:12:36.723Z,12.31
2022-09-18T22:15:05.746Z,12.31
2022-09-18T22:17:32.626Z,12.30
2022-09-18T22:19:59.575Z,12.32
2022-09-18T22:22:27.344Z,12.35
2022-09-18T22:24:56.612Z,12.39
2022-09-18T22:27:26.345Z,12.43
2022-09-18T22:29:55.600Z,12.44
2022-09-18T22:32:22.543Z,12.48
2022-09-18T22:34:51.082Z,12.50
2022-09-18T22:37:18.118Z,12.50
2022-09-18T22:39:45.038Z,12.52
2022-09-18T22:42:14.967Z,12.53
2022-09-18T22:44:41.887Z,12.54
2022-09-18T22:47:11.815Z,12.57
2022-09-18T22:49:38.709Z,12.57
2022-09-18T22:52:05.693Z,12.58
2022-09-18T22:54:32.879Z,12.62
2022-09-18T22:56:59.846Z,12.61
2022-09-18T22:59:27.591Z,12.63
2022-09-18T23:01:58.958Z,12.60
2022-09-18T23:04:29.209Z,12.57
2022-09-18T23:06:57.553Z,12.56
2022-09-18T23:09:25.105Z,12.52
2022-09-18T23:11:53.422Z,12.51
2022-09-18T23:14:23.050Z,12.47
2022-09-18T23:16:50.965Z,12.44
2022-09-18T23:19:23.777Z,12.38
2022-09-18T23:21:51.923Z,12.32
2022-09-18T23:24:19.191Z,12.33
2022-09-18T23:26:48.038Z,12.32
2022-09-18T23:29:17.337Z,12.31
2022-09-18T23:31:58.984Z,12.30
2022-09-18T23:34:31.486Z,12.25
2022-09-18T23:36:59.018Z,12.24
2022-09-18T23:39:34.114Z,12.30
2022-09-18T23:42:02.485Z,12.37
2022-09-18T23:44:31.280Z,12.36
2022-09-18T23:47:00.119Z,12.39
2022-09-18T23:49:27.487Z,12.40
2022-09-18T23:51:55.120Z,12.38
2022-09-18T23:54:24.498Z,12.37
2022-09-18T23:56:52.482Z,12.39
2022-09-18T23:59:22.809Z,12.39
